Time;durP1;ratioP1;P1;durP2;ratioP2;P2;SDS_P1;SDS_P2;PMS_P1;PMS_P2;Temp;Humidity;BMP_temperature;BMP_pressure;BME280_temperature;BME280_humidity;BME280_pressure;Samples;Min_cycle;Max_cycle;Signal;HPM_P1;HPM_P2
2023/07/26 00:00:59;;;;;;;16.13;14.43;;;14.00;99.90;;;;;;4995962;28;20847;-70
2023/07/26 00:03:24;;;;;;;20.33;16.90;;;14.00;99.90;;;;;;5000564;28;20661;-70
2023/07/26 00:05:50;;;;;;;17.40;15.73;;;13.90;99.90;;;;;;4997687;28;20680;-71
2023/07/26 00:08:15;;;;;;;17.60;15.60;;;13.90;99.90;;;;;;4990573;28;20175;-71
2023/07/26 00:10:46;;;;;;;18.43;16.63;;;13.90;99.90;;;;;;4992227;28;20199;-72
2023/07/26 00:13:12;;;;;;;20.13;16.23;;;13.90;99.90;;;;;;4993916;28;20235;-70
2023/07/26 00:15:37;;;;;;;19.40;17.50;;;13.90;99.90;;;;;;5004774;28;20464;-71
2023/07/26 00:18:03;;;;;;;19.47;17.60;;;13.90;99.90;;;;;;5001673;28;20187;-73
2023/07/26 00:20:28;;;;;;;20.90;17.17;;;13.90;99.90;;;;;;4993053;28;20187;-70
2023/07/26 00:22:54;;;;;;;20.27;18.27;;;13.90;99.90;;;;;;4988597;28;20183;-73
2023/07/26 00:25:19;;;;;;;19.27;17.37;;;14.00;99.90;;;;;;4992113;28;20899;-70
2023/07/26 00:27:45;;;;;;;18.47;16.67;;;13.90;99.90;;;;;;4998538;28;20201;-70
2023/07/26 00:30:13;;;;;;;20.97;16.83;;;13.90;99.90;;;;;;5000447;28;20186;-70
2023/07/26 00:32:38;;;;;;;20.43;18.23;;;13.90;99.90;;;;;;4998340;28;20183;-70
2023/07/26 00:35:04;;;;;;;19.40;17.40;;;13.80;99.90;;;;;;5002494;28;20454;-71
2023/07/26 00:37:30;;;;;;;21.63;18.50;;;13.90;99.90;;;;;;4998677;28;20617;-70
2023/07/26 00:39:55;;;;;;;18.30;16.40;;;14.00;99.90;;;;;;4991257;28;20211;-70
2023/07/26 00:42:21;;;;;;;20.43;18.30;;;14.00;99.90;;;;;;4993901;28;20193;-71
2023/07/26 00:44:46;;;;;;;18.90;17.10;;;14.00;99.90;;;;;;4999956;28;20210;-72
2023/07/26 00:47:12;;;;;;;19.10;17.30;;;14.00;99.90;;;;;;5003696;28;20183;-71
2023/07/26 00:49:38;;;;;;;19.03;17.00;;;14.00;99.90;;;;;;4997663;28;20179;-71
2023/07/26 00:52:03;;;;;;;21.90;17.83;;;14.00;99.90;;;;;;4993892;28;20189;-70
2023/07/26 00:54:29;;;;;;;18.80;17.20;;;14.00;99.90;;;;;;5001081;28;20554;-72
2023/07/26 00:56:55;;;;;;;17.53;15.93;;;14.00;99.90;;;;;;4994303;28;20183;-70
2023/07/26 00:59:20;;;;;;;19.23;17.17;;;14.10;99.90;;;;;;5002389;28;20186;-70
2023/07/26 01:01:46;;;;;;;19.67;17.83;;;14.10;99.90;;;;;;4994745;28;20179;-70
2023/07/26 01:04:11;;;;;;;19.90;17.90;;;14.20;99.90;;;;;;4997870;28;20253;-70
2023/07/26 01:06:41;;;;;;;18.03;16.40;;;14.20;99.90;;;;;;5002436;28;20187;-71
2023/07/26 01:09:27;;;;;;;19.13;17.43;;;14.20;99.90;;;;;;5001049;28;20187;-71
2023/07/26 01:12:15;;;;;;;15.93;14.47;;;14.30;99.90;;;;;;5007650;28;20469;-70
2023/07/26 01:14:53;;;;;;;16.97;15.50;;;14.30;99.90;;;;;;4992599;28;20505;-70
2023/07/26 01:17:19;;;;;;;15.30;13.93;;;14.30;99.90;;;;;;4995126;28;20903;-71
2023/07/26 01:19:45;;;;;;;17.73;16.07;;;14.30;99.90;;;;;;4996571;28;20457;-70
2023/07/26 01:22:10;;;;;;;17.30;15.50;;;14.30;99.90;;;;;;5003782;28;20183;-70
2023/07/26 01:24:36;;;;;;;15.07;12.60;;;14.20;99.90;;;;;;5007824;28;20211;-69
2023/07/26 01:27:01;;;;;;;14.87;13.47;;;14.00;99.90;;;;;;5001334;28;20540;-70
2023/07/26 01:29:27;;;;;;;14.33;12.83;;;13.90;99.90;;;;;;4992387;28;22013;-70
2023/07/26 01:31:52;;;;;;;14.43;13.07;;;13.80;99.90;;;;;;4997071;28;20194;-70
2023/07/26 01:34:19;;;;;;;12.70;11.37;;;13.70;99.90;;;;;;4995323;28;20204;-70
2023/07/26 01:36:45;;;;;;;12.97;11.67;;;13.70;99.90;;;;;;4993454;28;20176;-70
2023/07/26 01:39:11;;;;;;;11.87;10.67;;;13.60;99.90;;;;;;4997950;28;20431;-70
2023/07/26 01:41:38;;;;;;;11.23;10.33;;;13.30;99.90;;;;;;5005221;28;20898;-71
2023/07/26 01:44:04;;;;;;;13.90;11.20;;;13.40;99.90;;;;;;4995554;28;20212;-72
2023/07/26 01:46:29;;;;;;;14.73;10.33;;;13.40;99.90;;;;;;4992893;28;20835;-71
2023/07/26 01:48:55;;;;;;;10.87;9.87;;;13.40;99.90;;;;;;4996581;28;20974;-70
2023/07/26 01:51:20;;;;;;;11.90;10.20;;;13.40;99.90;;;;;;5005305;28;20258;-71
2023/07/26 01:53:46;;;;;;;10.73;9.83;;;13.50;99.90;;;;;;5000800;28;20203;-72
2023/07/26 01:56:11;;;;;;;10.70;9.60;;;13.50;99.90;;;;;;5001614;28;20704;-70
2023/07/26 01:58:37;;;;;;;10.13;9.33;;;13.50;99.90;;;;;;5001234;28;20274;-70
2023/07/26 02:01:03;;;;;;;10.17;9.17;;;13.50;99.90;;;;;;4993314;28;20588;-72
2023/07/26 02:03:29;;;;;;;11.50;10.53;;;13.50;99.90;;;;;;4992899;28;20211;-73
2023/07/26 02:05:55;;;;;;;10.97;10.00;;;13.50;99.90;;;;;;4993304;28;20470;-71
2023/07/26 02:08:21;;;;;;;11.90;10.63;;;13.50;99.90;;;;;;5001247;28;20235;-73
2023/07/26 02:10:47;;;;;;;10.43;9.60;;;13.50;99.90;;;;;;5006216;28;20183;-71
2023/07/26 02:13:12;;;;;;;9.93;9.13;;;13.50;99.90;;;;;;5007855;28;20476;-71
2023/07/26 02:15:38;;;;;;;9.33;8.40;;;13.40;99.90;;;;;;5004728;28;20194;-72
2023/07/26 02:18:04;;;;;;;10.50;9.07;;;13.40;99.90;;;;;;4995386;28;20180;-71
2023/07/26 02:20:30;;;;;;;10.60;9.70;;;13.30;99.90;;;;;;4993692;28;20530;-70
2023/07/26 02:22:57;;;;;;;9.80;9.00;;;13.30;99.90;;;;;;4999973;28;20187;-70
2023/07/26 02:25:22;;;;;;;9.30;8.50;;;13.40;99.90;;;;;;4999077;28;20200;-70
2023/07/26 02:27:48;;;;;;;10.10;9.27;;;13.40;99.90;;;;;;5003042;28;20450;-71
2023/07/26 02:30:13;;;;;;;9.83;9.00;;;13.30;99.90;;;;;;4998304;28;20190;-71
2023/07/26 02:32:39;;;;;;;9.80;9.00;;;13.40;99.90;;;;;;5004280;28;20179;-71
2023/07/26 02:35:05;;;;;;;9.83;8.83;;;13.40;99.90;;;;;;4990341;28;20207;-71
2023/07/26 02:37:30;;;;;;;10.10;9.20;;;13.30;99.90;;;;;;4993388;28;20195;-71
2023/07/26 02:39:56;;;;;;;10.43;9.43;;;13.40;99.90;;;;;;4994896;28;20820;-71
2023/07/26 02:42:21;;;;;;;10.37;9.23;;;13.30;99.90;;;;;;5006295;28;20245;-73
2023/07/26 02:44:47;;;;;;;11.10;10.20;;;13.40;99.90;;;;;;4997511;28;20242;-70
2023/07/26 02:47:13;;;;;;;11.83;9.60;;;13.40;99.90;;;;;;4999257;28;20297;-70
2023/07/26 02:49:39;;;;;;;12.43;11.23;;;13.40;99.90;;;;;;4992412;28;20462;-73
2023/07/26 02:52:05;;;;;;;11.30;10.17;;;13.40;99.90;;;;;;4991414;28;20263;-70
2023/07/26 02:54:30;;;;;;;10.40;9.23;;;13.40;99.90;;;;;;4998838;28;20215;-70
2023/07/26 02:56:56;;;;;;;13.33;10.03;;;13.30;99.90;;;;;;4996018;28;20496;-71
2023/07/26 02:59:21;;;;;;;10.43;9.40;;;13.40;99.90;;;;;;4996608;28;20727;-71
2023/07/26 03:01:47;;;;;;;11.47;10.27;;;13.40;99.90;;;;;;5003389;28;20194;-71
2023/07/26 03:04:12;;;;;;;10.63;9.50;;;13.40;99.90;;;;;;4999348;28;20230;-71
2023/07/26 03:06:40;;;;;;;11.27;10.20;;;13.40;99.90;;;;;;4999960;28;20656;-70
2023/07/26 03:09:05;;;;;;;10.70;9.80;;;13.40;99.90;;;;;;4990145;28;20187;-71
2023/07/26 03:11:31;;;;;;;11.57;10.23;;;13.40;99.90;;;;;;4991860;28;20794;-71
2023/07/26 03:13:56;;;;;;;9.77;8.87;;;13.40;99.90;;;;;;5000031;28;20223;-72
2023/07/26 03:16:22;;;;;;;10.10;9.23;;;13.40;99.90;;;;;;4999169;28;20270;-71
2023/07/26 03:18:47;;;;;;;10.27;9.40;;;13.40;99.90;;;;;;5000509;28;20184;-71
2023/07/26 03:21:13;;;;;;;10.77;9.97;;;13.30;99.90;;;;;;5003565;28;20597;-71
2023/07/26 03:23:39;;;;;;;14.50;10.03;;;13.30;99.90;;;;;;4990784;28;20210;-71
2023/07/26 03:26:04;;;;;;;11.57;10.00;;;13.30;99.90;;;;;;4990933;28;20727;-71
2023/07/26 03:28:30;;;;;;;9.27;8.57;;;13.30;99.90;;;;;;5000724;28;20233;-72
2023/07/26 03:30:55;;;;;;;16.10;9.53;;;13.20;99.90;;;;;;4993220;28;20570;-71
2023/07/26 03:33:21;;;;;;;10.20;9.30;;;13.20;99.90;;;;;;5004961;28;20198;-71
2023/07/26 03:35:47;;;;;;;10.63;9.63;;;13.10;99.90;;;;;;4998526;28;20190;-71
2023/07/26 03:38:13;;;;;;;9.73;8.93;;;13.10;99.90;;;;;;5000354;28;20194;-72
2023/07/26 03:40:39;;;;;;;9.73;8.77;;;13.00;99.90;;;;;;4992100;28;20465;-70
2023/07/26 03:43:05;;;;;;;9.13;8.33;;;13.00;99.90;;;;;;4993423;28;20576;-71
2023/07/26 03:45:30;;;;;;;8.87;8.13;;;12.90;99.90;;;;;;4999183;28;20457;-71
2023/07/26 03:47:56;;;;;;;12.37;8.60;;;12.90;99.90;;;;;;5004783;28;20269;-72
2023/07/26 03:50:21;;;;;;;9.70;8.90;;;12.90;99.90;;;;;;4991778;28;20230;-70
2023/07/26 03:52:47;;;;;;;9.50;8.30;;;12.90;99.90;;;;;;4999102;28;20194;-71
2023/07/26 03:55:13;;;;;;;9.93;9.03;;;12.90;99.90;;;;;;5002965;28;20183;-71
2023/07/26 03:57:38;;;;;;;9.20;8.30;;;12.80;99.90;;;;;;4991279;28;20195;-72
2023/07/26 04:00:04;;;;;;;9.30;8.60;;;12.80;99.90;;;;;;4991560;28;20266;-73
2023/07/26 04:02:31;;;;;;;9.33;8.60;;;12.70;99.90;;;;;;4993885;28;20246;-71
2023/07/26 04:04:57;;;;;;;9.90;9.10;;;12.70;99.90;;;;;;4999905;28;20461;-71
2023/07/26 04:07:22;;;;;;;8.83;8.17;;;12.70;99.90;;;;;;5004619;28;20461;-71
2023/07/26 04:09:48;;;;;;;9.43;8.40;;;12.70;99.90;;;;;;4997103;28;20473;-71
2023/07/26 04:12:14;;;;;;;13.63;12.30;;;12.80;99.90;;;;;;5002715;28;20179;-72
2023/07/26 04:14:40;;;;;;;9.30;8.40;;;12.80;99.90;;;;;;4991804;28;20779;-71
2023/07/26 04:17:05;;;;;;;9.83;8.60;;;12.80;99.90;;;;;;4994247;28;20183;-71
2023/07/26 04:19:31;;;;;;;10.20;8.47;;;12.90;99.90;;;;;;4997838;28;20440;-72
2023/07/26 04:21:56;;;;;;;9.33;8.30;;;12.90;99.90;;;;;;5001705;28;20657;-73
2023/07/26 04:24:23;;;;;;;10.40;8.63;;;12.90;99.90;;;;;;4990470;28;20262;-70
2023/07/26 04:26:48;;;;;;;9.73;8.60;;;13.00;99.90;;;;;;4997687;28;20242;-71
2023/07/26 04:29:14;;;;;;;10.37;9.37;;;13.10;99.90;;;;;;4999619;28;20443;-71
2023/07/26 04:31:39;;;;;;;9.50;8.53;;;13.00;99.90;;;;;;4988688;28;20218;-72
2023/07/26 04:34:05;;;;;;;8.73;8.13;;;13.20;99.90;;;;;;4990551;28;20191;-71
2023/07/26 04:36:30;;;;;;;9.70;8.77;;;13.10;99.90;;;;;;4998698;28;20224;-73
2023/07/26 04:38:56;;;;;;;9.53;8.40;;;13.10;99.90;;;;;;5001282;28;20208;-72
2023/07/26 04:41:24;;;;;;;9.50;8.70;;;13.20;99.90;;;;;;4997637;28;20183;-71
2023/07/26 04:43:49;;;;;;;9.23;8.03;;;13.20;99.90;;;;;;4993934;28;20689;-70
2023/07/26 04:46:16;;;;;;;9.60;8.80;;;13.20;99.90;;;;;;4993964;28;20477;-71
2023/07/26 04:48:42;;;;;;;10.33;9.33;;;13.30;99.90;;;;;;4999495;28;20180;-71
2023/07/26 04:51:07;;;;;;;9.70;8.80;;;13.30;99.90;;;;;;4991801;28;21083;-71
2023/07/26 04:53:33;;;;;;;9.73;8.97;;;13.30;99.90;;;;;;4991657;28;20191;-71
2023/07/26 04:55:58;;;;;;;10.40;9.40;;;13.40;99.90;;;;;;4991212;28;20179;-71
2023/07/26 04:58:24;;;;;;;9.53;8.63;;;13.50;99.90;;;;;;4991451;28;20266;-71
2023/07/26 05:00:50;;;;;;;10.20;9.20;;;13.50;99.90;;;;;;4991088;28;20657;-71
2023/07/26 05:03:16;;;;;;;10.03;9.23;;;13.60;99.90;;;;;;4992711;28;20210;-70
2023/07/26 05:05:47;;;;;;;10.40;9.53;;;13.50;99.90;;;;;;5003797;28;20237;-71
2023/07/26 05:08:13;;;;;;;11.07;10.07;;;13.60;99.90;;;;;;4991164;28;20470;-71
2023/07/26 05:10:38;;;;;;;10.83;10.03;;;13.60;99.90;;;;;;4991657;28;20473;-71
2023/07/26 05:13:07;;;;;;;12.80;9.50;;;13.60;99.90;;;;;;4989959;28;20265;-71
2023/07/26 05:15:32;;;;;;;10.60;9.50;;;13.50;99.90;;;;;;4987890;28;20188;-73
2023/07/26 05:17:58;;;;;;;10.97;9.80;;;13.50;99.90;;;;;;4996779;28;20504;-73
2023/07/26 05:20:23;;;;;;;11.07;10.17;;;13.40;99.90;;;;;;4991233;28;20184;-73
2023/07/26 05:22:49;;;;;;;10.90;9.80;;;13.50;99.90;;;;;;4990926;28;20222;-73
2023/07/26 05:25:14;;;;;;;9.90;9.10;;;13.40;99.90;;;;;;4989586;28;21610;-73
2023/07/26 05:27:40;;;;;;;12.13;9.77;;;13.50;99.90;;;;;;4995196;28;20203;-72
2023/07/26 05:30:06;;;;;;;10.00;9.30;;;13.50;99.90;;;;;;4997558;28;20184;-73
2023/07/26 05:32:32;;;;;;;10.03;9.33;;;13.60;99.90;;;;;;4991184;28;20172;-73
2023/07/26 05:34:58;;;;;;;10.83;9.73;;;13.60;99.90;;;;;;4994634;28;21006;-72
2023/07/26 05:37:24;;;;;;;11.03;9.93;;;13.60;99.90;;;;;;4993393;28;20442;-73
2023/07/26 05:39:51;;;;;;;9.40;8.70;;;13.70;99.90;;;;;;4988738;28;20187;-72
2023/07/26 05:42:17;;;;;;;9.20;8.40;;;13.70;99.90;;;;;;5002903;28;20449;-73
2023/07/26 05:44:43;;;;;;;11.23;10.20;;;13.80;99.90;;;;;;4996220;28;20462;-73
2023/07/26 05:47:10;;;;;;;14.73;8.87;;;13.90;99.90;;;;;;4990598;28;20434;-73
2023/07/26 05:49:36;;;;;;;10.40;9.47;;;14.00;99.90;;;;;;4990968;28;20258;-72
2023/07/26 05:52:01;;;;;;;12.07;9.20;;;14.10;99.90;;;;;;4990417;28;20915;-73
2023/07/26 05:54:27;;;;;;;9.73;7.93;;;14.20;99.90;;;;;;4997277;28;20202;-72
2023/07/26 05:56:52;;;;;;;9.63;8.63;;;14.20;99.90;;;;;;4993755;28;20299;-73
2023/07/26 05:59:18;;;;;;;10.17;9.40;;;14.20;99.90;;;;;;5002435;28;20229;-74
2023/07/26 06:01:43;;;;;;;8.63;7.90;;;14.30;99.90;;;;;;4990463;28;20176;-74
2023/07/26 06:04:09;;;;;;;9.63;8.73;;;14.20;99.90;;;;;;4990103;28;20685;-74
2023/07/26 06:06:35;;;;;;;9.03;8.27;;;14.30;99.90;;;;;;4997811;28;20199;-74
2023/07/26 06:09:00;;;;;;;9.00;7.77;;;14.50;99.90;;;;;;4999919;28;20330;-72
2023/07/26 06:11:26;;;;;;;8.60;7.90;;;14.50;99.90;;;;;;4993963;28;20186;-73
2023/07/26 06:13:53;;;;;;;8.60;7.77;;;14.80;99.90;;;;;;4992037;28;20293;-75
2023/07/26 06:16:18;;;;;;;10.83;8.47;;;14.80;99.90;;;;;;4991704;28;20681;-74
2023/07/26 06:18:44;;;;;;;9.13;8.33;;;14.90;99.90;;;;;;4995268;28;20497;-75
2023/07/26 06:21:11;;;;;;;8.10;7.40;;;15.10;99.90;;;;;;4996578;28;20207;-75
2023/07/26 06:23:37;;;;;;;7.40;6.80;;;15.10;99.90;;;;;;4992466;28;20199;-75
2023/07/26 06:26:03;;;;;;;9.97;8.77;;;15.10;99.90;;;;;;4990943;28;20473;-75
2023/07/26 06:28:29;;;;;;;8.30;7.43;;;15.20;99.90;;;;;;4991019;28;20180;-75
2023/07/26 06:30:55;;;;;;;7.13;6.53;;;15.30;99.90;;;;;;4991222;28;20446;-75
2023/07/26 06:33:21;;;;;;;8.40;7.00;;;15.30;99.90;;;;;;4993930;28;20567;-75
2023/07/26 06:35:47;;;;;;;7.67;6.97;;;15.40;99.90;;;;;;4994298;28;20431;-74
2023/07/26 06:38:12;;;;;;;8.40;7.60;;;15.20;99.90;;;;;;5003506;28;20605;-73
2023/07/26 06:40:38;;;;;;;8.67;7.90;;;15.20;99.90;;;;;;5007410;28;20179;-75
2023/07/26 06:43:05;;;;;;;8.17;7.43;;;15.20;99.90;;;;;;4994410;28;20210;-75
2023/07/26 06:45:30;;;;;;;8.53;7.70;;;15.20;99.90;;;;;;5005829;28;20187;-75
2023/07/26 06:47:56;;;;;;;7.40;7.00;;;15.40;99.90;;;;;;4997022;28;20515;-74
2023/07/26 06:50:22;;;;;;;8.73;8.00;;;15.40;99.90;;;;;;4995601;28;20179;-74
2023/07/26 06:52:48;;;;;;;7.73;7.13;;;15.50;99.90;;;;;;4995084;28;20199;-75
2023/07/26 06:55:14;;;;;;;7.80;7.13;;;15.40;99.90;;;;;;5010040;28;20177;-75
2023/07/26 06:57:39;;;;;;;7.07;6.57;;;15.40;99.90;;;;;;4985523;28;20530;-75
2023/07/26 07:00:07;;;;;;;10.00;8.00;;;15.50;99.90;;;;;;4989325;28;20222;-74
2023/07/26 07:02:33;;;;;;;11.07;10.13;;;15.20;99.90;;;;;;5001149;28;20540;-74
2023/07/26 07:04:59;;;;;;;8.47;7.87;;;15.10;99.90;;;;;;5003355;28;20458;-75
2023/07/26 07:07:25;;;;;;;9.30;8.60;;;15.00;99.90;;;;;;4991343;28;20925;-75
2023/07/26 07:09:50;;;;;;;9.10;8.37;;;14.90;99.90;;;;;;5001623;28;20510;-72
2023/07/26 07:12:16;;;;;;;8.77;8.07;;;14.80;99.90;;;;;;5012801;28;20547;-72
2023/07/26 07:14:42;;;;;;;9.60;8.87;;;14.70;99.90;;;;;;4999604;28;20567;-72
2023/07/26 07:17:08;;;;;;;9.90;9.10;;;14.60;99.90;;;;;;4992902;28;20419;-71
2023/07/26 07:19:34;;;;;;;9.70;8.90;;;14.50;99.90;;;;;;5001558;28;20262;-72
2023/07/26 07:21:59;;;;;;;9.57;8.77;;;14.50;99.90;;;;;;4996936;28;20183;-72
2023/07/26 07:24:25;;;;;;;12.10;10.70;;;14.50;99.90;;;;;;5001901;28;20203;-71
2023/07/26 07:26:50;;;;;;;9.57;8.67;;;14.50;99.90;;;;;;5001711;28;20194;-72
2023/07/26 07:29:16;;;;;;;11.90;9.07;;;14.50;99.90;;;;;;4993181;28;20171;-71
2023/07/26 07:31:41;;;;;;;9.47;8.00;;;14.50;99.90;;;;;;4992783;28;20188;-71
2023/07/26 07:34:07;;;;;;;9.30;8.60;;;14.60;99.90;;;;;;5002966;28;20199;-71
2023/07/26 07:36:32;;;;;;;9.60;8.80;;;14.40;99.90;;;;;;5013197;28;20175;-71
2023/07/26 07:38:58;;;;;;;10.60;9.60;;;14.60;99.90;;;;;;5009848;28;20664;-71
2023/07/26 07:41:23;;;;;;;8.80;8.13;;;14.60;99.90;;;;;;5005261;28;20249;-71
2023/07/26 07:43:49;;;;;;;9.70;8.80;;;14.50;99.90;;;;;;4994712;28;20210;-71
2023/07/26 07:46:14;;;;;;;12.83;8.87;;;14.60;99.90;;;;;;4993177;28;20199;-71
2023/07/26 07:48:41;;;;;;;9.53;8.50;;;14.60;99.90;;;;;;4992766;28;20187;-71
2023/07/26 07:51:06;;;;;;;9.90;9.10;;;14.60;99.90;;;;;;5001159;28;20172;-71
2023/07/26 07:53:32;;;;;;;12.07;10.83;;;14.50;99.90;;;;;;4997746;28;20465;-71
2023/07/26 07:55:57;;;;;;;9.83;9.03;;;14.40;99.90;;;;;;5004600;28;20234;-72
2023/07/26 07:58:23;;;;;;;9.87;8.90;;;14.40;99.90;;;;;;5012170;28;20186;-71
2023/07/26 08:00:48;;;;;;;9.40;8.60;;;14.40;99.90;;;;;;4994590;28;20294;-71
2023/07/26 08:03:14;;;;;;;9.07;8.33;;;14.30;99.90;;;;;;4992884;28;20202;-71
2023/07/26 08:05:40;;;;;;;9.23;8.43;;;14.30;99.90;;;;;;4999965;28;20211;-71
2023/07/26 08:08:06;;;;;;;8.60;7.80;;;14.40;99.90;;;;;;5002195;28;20180;-71
2023/07/26 08:10:31;;;;;;;8.83;8.03;;;14.30;99.90;;;;;;5012344;28;20250;-72
2023/07/26 08:12:57;;;;;;;9.60;8.70;;;14.40;99.90;;;;;;5012243;28;20528;-72
2023/07/26 08:15:22;;;;;;;10.30;8.30;;;14.30;99.90;;;;;;5012306;28;20179;-71
2023/07/26 08:17:48;;;;;;;10.30;8.80;;;14.10;99.90;;;;;;4997575;28;20266;-72
2023/07/26 08:20:13;;;;;;;8.43;7.73;;;13.90;99.90;;;;;;4990729;28;20629;-71
2023/07/26 08:22:39;;;;;;;9.00;8.17;;;14.00;99.90;;;;;;4991837;28;20188;-71
2023/07/26 08:25:06;;;;;;;8.07;7.37;;;14.00;99.90;;;;;;5010222;28;20536;-71
2023/07/26 08:27:31;;;;;;;5.83;5.30;;;14.10;99.90;;;;;;5012070;28;20476;-71
2023/07/26 08:29:57;;;;;;;5.07;4.67;;;14.30;99.90;;;;;;5006503;28;20446;-72
2023/07/26 08:32:22;;;;;;;7.33;3.50;;;14.50;99.90;;;;;;4999831;28;20185;-71
2023/07/26 08:34:48;;;;;;;4.13;3.73;;;14.80;99.90;;;;;;5001578;28;20214;-71
2023/07/26 08:37:13;;;;;;;7.40;3.67;;;15.00;99.90;;;;;;4998869;28;20263;-71
2023/07/26 08:39:39;;;;;;;3.30;3.10;;;15.00;99.90;;;;;;4990417;28;20565;-71
2023/07/26 08:42:05;;;;;;;2.87;2.50;;;15.10;99.90;;;;;;4990589;28;20183;-71
2023/07/26 08:44:33;;;;;;;2.50;2.30;;;15.50;99.90;;;;;;4989634;28;20817;-71
2023/07/26 08:47:00;;;;;;;2.10;2.00;;;15.60;99.90;;;;;;4990636;28;20799;-72
2023/07/26 08:49:27;;;;;;;6.33;2.47;;;15.60;99.90;;;;;;4993436;28;20539;-72
2023/07/26 08:51:53;;;;;;;1.97;1.77;;;15.60;99.90;;;;;;4992365;28;20437;-72
2023/07/26 08:54:19;;;;;;;3.30;2.20;;;15.50;99.90;;;;;;4995212;28;20457;-71
2023/07/26 08:56:45;;;;;;;1.80;1.70;;;15.40;99.90;;;;;;4996220;28;20545;-71
2023/07/26 08:59:10;;;;;;;1.90;1.80;;;15.30;99.90;;;;;;5002337;28;20832;-71
2023/07/26 09:01:36;;;;;;;2.40;1.80;;;15.30;99.90;;;;;;5002263;28;20215;-72
2023/07/26 09:04:02;;;;;;;3.50;1.73;;;15.40;99.90;;;;;;5009435;28;20286;-71
2023/07/26 09:06:27;;;;;;;1.97;1.83;;;15.20;99.90;;;;;;4990964;28;20646;-72
2023/07/26 09:08:54;;;;;;;2.27;1.93;;;15.20;99.90;;;;;;4989864;28;20657;-71
2023/07/26 09:11:26;;;;;;;2.63;2.43;;;15.20;99.90;;;;;;4994745;28;20805;-71
2023/07/26 09:13:59;;;;;;;2.37;2.23;;;15.30;99.90;;;;;;4995868;28;20265;-72
2023/07/26 09:16:29;;;;;;;2.13;2.03;;;15.30;99.90;;;;;;4994643;28;20807;-72
2023/07/26 09:19:00;;;;;;;2.47;2.37;;;15.50;99.90;;;;;;5003261;28;20458;-72
2023/07/26 09:21:28;;;;;;;2.30;2.20;;;15.40;99.90;;;;;;5004719;28;20447;-71
2023/07/26 09:23:53;;;;;;;2.20;2.10;;;15.40;99.90;;;;;;4999217;28;20556;-71
2023/07/26 09:26:41;;;;;;;3.00;2.70;;;15.40;99.90;;;;;;5002053;28;20527;-72
2023/07/26 09:29:11;;;;;;;12.37;11.17;;;15.40;99.90;;;;;;5005993;28;20589;-71
2023/07/26 09:31:41;;;;;;;2.50;2.30;;;15.40;99.90;;;;;;5015695;28;20414;-72
2023/07/26 09:34:11;;;;;;;2.50;2.30;;;15.20;99.90;;;;;;5015576;28;20453;-71
2023/07/26 09:36:56;;;;;;;4.30;3.90;;;14.80;99.90;;;;;;5006842;28;20449;-71
2023/07/26 09:39:25;;;;;;;2.63;2.43;;;14.50;99.90;;;;;;5003510;28;20959;-71
2023/07/26 09:42:05;;;;;;;2.20;2.07;;;14.40;99.90;;;;;;4995539;28;20430;-71
2023/07/26 09:44:31;;;;;;;3.17;2.87;;;14.30;99.90;;;;;;4999794;28;20468;-71
2023/07/26 09:46:57;;;;;;;2.50;2.30;;;14.20;99.90;;;;;;5006834;28;20421;-71
2023/07/26 09:49:27;;;;;;;2.80;2.30;;;14.20;99.90;;;;;;5011933;28;20521;-71
2023/07/26 09:51:57;;;;;;;3.10;2.37;;;14.60;99.90;;;;;;5003781;28;20798;-71
2023/07/26 09:54:31;;;;;;;4.30;2.47;;;14.80;99.90;;;;;;5008826;28;20448;-71
2023/07/26 09:56:57;;;;;;;2.70;2.37;;;15.20;99.90;;;;;;5006947;28;20493;-71
2023/07/26 09:59:29;;;;;;;2.43;2.23;;;15.70;99.90;;;;;;4995089;28;20505;-71
2023/07/26 10:01:57;;;;;;;5.53;2.43;;;15.80;99.90;;;;;;4994847;28;20423;-71
2023/07/26 10:04:41;;;;;;;4.10;2.50;;;16.10;99.90;;;;;;4977617;28;20508;-72
2023/07/26 10:07:10;;;;;;;4.57;2.90;;;16.80;99.90;;;;;;4987222;28;20447;-71
2023/07/26 10:09:43;;;;;;;2.57;2.37;;;17.10;99.90;;;;;;4992535;28;20481;-72
2023/07/26 10:12:10;;;;;;;5.80;2.60;;;17.60;99.90;;;;;;5004969;28;20419;-72
2023/07/26 10:14:36;;;;;;;2.20;1.93;;;18.30;99.90;;;;;;5004797;28;20905;-72
2023/07/26 10:17:03;;;;;;;2.90;2.20;;;19.50;99.90;;;;;;5001462;28;21010;-74
2023/07/26 10:19:30;;;;;;;6.23;1.87;;;20.70;99.90;;;;;;4991355;28;21031;-75
2023/07/26 10:21:58;;;;;;;2.50;2.30;;;22.30;99.90;;;;;;4989755;28;20872;-74
2023/07/26 10:24:26;;;;;;;2.30;2.10;;;23.10;99.90;;;;;;4999517;28;20470;-76
2023/07/26 10:26:53;;;;;;;1.90;1.80;;;22.70;99.90;;;;;;4993049;28;20445;-75
2023/07/26 10:29:20;;;;;;;3.17;2.10;;;22.70;99.90;;;;;;4991774;28;20426;-76
2023/07/26 10:31:46;;;;;;;2.03;1.93;;;21.40;99.90;;;;;;4992525;28;20521;-76
2023/07/26 10:34:20;;;;;;;2.73;2.53;;;20.30;99.90;;;;;;4991580;28;20446;-76
2023/07/26 10:36:45;;;;;;;2.00;1.83;;;19.90;99.90;;;;;;4993116;28;20458;-76
2023/07/26 10:39:12;;;;;;;2.27;2.07;;;19.60;99.90;;;;;;4996482;28;20474;-76
2023/07/26 10:41:46;;;;;;;4.07;2.47;;;19.40;99.90;;;;;;4999396;28;20187;-75
2023/07/26 10:44:12;;;;;;;2.47;2.27;;;19.40;99.90;;;;;;4986669;28;20842;-76
2023/07/26 10:46:47;;;;;;;2.30;2.20;;;20.50;99.90;;;;;;5001752;28;20470;-68
2023/07/26 10:49:18;;;;;;;5.87;4.13;;;20.50;99.90;;;;;;4991039;28;20660;-70
2023/07/26 10:51:58;;;;;;;3.33;2.87;;;20.40;99.90;;;;;;4994842;28;20431;-69
2023/07/26 10:54:43;;;;;;;3.53;2.97;;;20.30;99.90;;;;;;4991654;28;20528;-69
2023/07/26 10:57:16;;;;;;;2.90;2.70;;;20.10;99.90;;;;;;4996577;28;20442;-69
2023/07/26 11:00:14;;;;;;;2.60;2.40;;;19.70;99.90;;;;;;4987482;28;20459;-69
2023/07/26 11:02:43;;;;;;;2.67;2.47;;;19.20;99.90;;;;;;4984643;28;20434;-68
2023/07/26 11:05:19;;;;;;;2.63;2.43;;;18.90;99.90;;;;;;4993590;28;20588;-67
2023/07/26 11:07:49;;;;;;;2.50;2.30;;;18.80;99.90;;;;;;5000491;28;20528;-66
2023/07/26 11:10:28;;;;;;;3.53;2.73;;;18.40;99.90;;;;;;4990801;28;20434;-69
2023/07/26 11:13:12;;;;;;;3.13;2.37;;;18.90;99.90;;;;;;4961798;28;1032598;-69
2023/07/26 11:15:41;;;;;;;2.80;2.50;;;19.50;99.90;;;;;;4987801;28;20449;-68
2023/07/26 11:18:08;;;;;;;2.57;2.47;;;20.00;99.90;;;;;;4990430;28;20847;-68
2023/07/26 11:20:38;;;;;;;3.10;2.73;;;20.00;99.90;;;;;;4985285;28;20966;-68
2023/07/26 11:23:15;;;;;;;2.33;2.23;;;20.50;99.90;;;;;;4994613;28;20454;-67
2023/07/26 11:25:42;;;;;;;2.60;2.40;;;20.80;99.90;;;;;;4992469;28;20462;-68
2023/07/26 11:28:07;;;;;;;4.10;3.70;;;21.10;99.90;;;;;;4991371;28;20430;-68
2023/07/26 11:30:33;;;;;;;1.97;1.87;;;21.10;99.90;;;;;;4992168;28;20847;-68
2023/07/26 11:32:58;;;;;;;2.30;1.70;;;22.30;99.90;;;;;;4992126;28;20194;-68
2023/07/26 11:35:24;;;;;;;2.50;2.30;;;24.10;99.90;;;;;;4993424;28;20267;-67
2023/07/26 11:37:54;;;;;;;4.47;2.40;;;24.70;97.10;;;;;;4991581;28;20683;-67
2023/07/26 11:40:20;;;;;;;2.70;2.50;;;25.30;94.60;;;;;;4982817;28;20242;-68
2023/07/26 11:42:46;;;;;;;2.37;2.13;;;26.60;90.40;;;;;;5001688;28;20446;-68
2023/07/26 11:45:13;;;;;;;2.63;2.30;;;26.70;80.20;;;;;;4992624;28;20975;-68
2023/07/26 11:47:38;;;;;;;3.20;2.80;;;27.10;76.30;;;;;;4990155;28;20176;-68
2023/07/26 11:50:05;;;;;;;3.50;3.20;;;26.60;77.40;;;;;;4993452;28;20441;-67
2023/07/26 11:52:30;;;;;;;2.90;2.60;;;26.30;79.00;;;;;;4992123;28;20442;-68
2023/07/26 11:54:57;;;;;;;2.70;2.50;;;28.30;70.30;;;;;;4991959;28;20525;-68
2023/07/26 11:57:25;;;;;;;3.90;2.50;;;29.10;68.40;;;;;;4994702;28;20266;-68
2023/07/26 11:59:53;;;;;;;3.13;2.83;;;28.10;66.10;;;;;;4990321;28;20489;-67
2023/07/26 12:02:18;;;;;;;3.03;2.83;;;26.40;66.50;;;;;;4990476;28;20441;-67
2023/07/26 12:05:13;;;;;;;2.53;2.33;;;24.70;75.30;;;;;;4991918;28;20462;-67
2023/07/26 12:07:43;;;;;;;3.70;2.57;;;23.30;83.40;;;;;;4990516;28;20230;-69
2023/07/26 12:10:09;;;;;;;2.70;2.50;;;22.40;91.20;;;;;;4991309;28;20489;-70
2023/07/26 12:12:43;;;;;;;2.60;2.40;;;22.30;93.20;;;;;;5000407;28;20806;-70
2023/07/26 12:15:11;;;;;;;2.83;2.30;;;22.90;92.60;;;;;;4991268;28;20274;-69
2023/07/26 12:18:00;;;;;;;5.20;2.77;;;23.00;91.70;;;;;;4990219;28;20814;-69
2023/07/26 12:20:27;;;;;;;2.80;2.60;;;22.30;94.30;;;;;;4991088;28;20434;-70
2023/07/26 12:22:55;;;;;;;4.43;3.97;;;21.50;97.40;;;;;;4990933;28;20855;-69
2023/07/26 12:25:21;;;;;;;3.40;3.10;;;21.30;97.60;;;;;;4990415;28;20458;-70
2023/07/26 12:27:49;;;;;;;4.73;2.70;;;21.30;97.90;;;;;;4990455;28;20458;-69
2023/07/26 12:30:17;;;;;;;3.07;2.87;;;21.20;98.60;;;;;;4989979;28;20504;-70
2023/07/26 12:32:43;;;;;;;3.57;3.37;;;20.70;99.60;;;;;;4990871;28;20461;-70
2023/07/26 12:35:22;;;;;;;3.10;2.90;;;20.50;99.90;;;;;;4989923;28;20940;-70
2023/07/26 12:37:49;;;;;;;3.27;2.97;;;20.10;99.90;;;;;;4991495;28;20711;-70
2023/07/26 12:40:17;;;;;;;2.90;2.70;;;19.90;99.90;;;;;;4991894;28;20513;-70